Time;durP1;ratioP1;P1;durP2;ratioP2;P2;SDS_P1;SDS_P2;PMS_P1;PMS_P2;Temp;Humidity;BMP_temperature;BMP_pressure;BME280_temperature;BME280_humidity;BME280_pressure;Samples;Min_cycle;Max_cycle;Signal;HPM_P1;HPM_P2
2021/11/28 00:00:13;;;;;;;;;;;;;;;;;;348594;28;996;-70
2021/11/28 00:00:26;;;;;;;;;;;;;;;;;;348574;28;1051;-70
2021/11/28 00:00:43;;;;;;;;;;;;;;;;;;348593;28;810;-70
2021/11/28 00:00:53;;;;;;;;;;;;;;;;;;348623;28;1036;-70
2021/11/28 00:01:05;;;;;;;;;;;;;;;;;;348492;28;870;-70
2021/11/28 00:01:16;;;;;;;;;;;;;;;;;;348494;28;921;-70
2021/11/28 00:01:26;;;;;;;;;;;;;;;;;;348586;28;952;-70
2021/11/28 00:01:37;;;;;;;;;;;;;;;;;;348497;28;960;-70
2021/11/28 00:01:53;;;;;;;;;;;;;;;;;;348567;28;937;-70
2021/11/28 00:02:05;;;;;;;;;;;;;;;;;;348471;28;807;-70
2021/11/28 00:02:19;;;;;;;;;;;;;;;;;;348491;28;937;-70
2021/11/28 00:02:29;;;;;;;;;;;;;;;;;;348514;28;1012;-70
2021/11/28 00:02:39;;;;;;;;;;;;;;;;;;348486;28;941;-70
2021/11/28 00:02:50;;;;;;;;;;;;;;;;;;348432;28;981;-70
2021/11/28 00:03:04;;;;;;;;;;;;;;;;;;348459;28;1015;-70
2021/11/28 00:03:16;;;;;;;;;;;;;;;;;;348314;28;968;-70
2021/11/28 00:03:26;;;;;;;;;;;;;;;;;;348499;28;980;-70
2021/11/28 00:03:36;;;;;;;;;;;;;;;;;;348372;28;790;-70
2021/11/28 00:03:47;;;;;;;;;;;;;;;;;;348398;28;782;-70
2021/11/28 00:04:16;;;;;;;;;;;;;;;;;;348590;28;644;-70
2021/11/28 00:04:26;;;;;;;;;;;;;;;;;;348574;28;869;-70
2021/11/28 00:04:36;;;;;;;;;;;;;;;;;;348579;28;848;-70
2021/11/28 00:04:51;;;;;;;;;;;;;;;;;;348560;28;818;-70
2021/11/28 00:05:03;;;;;;;;;;;;;;;;;;348654;28;803;-71
2021/11/28 00:05:34;;;;;;;;;;;;;;;;;;348250;28;913;-70
2021/11/28 00:06:07;;;;;;;;;;;;;;;;;;344342;28;1012;-70
2021/11/28 00:06:27;;;;;;;;;;;;;;;;;;344247;28;891;-70
2021/11/28 00:06:39;;;;;;;;;;;;;;;;;;344357;28;798;-70
2021/11/28 00:07:00;;;;;;;;;;;;;;;;;;344296;28;1082;-70
2021/11/28 00:08:09;;;;;;;;;;;;;;;;;;345742;28;970;-70
2021/11/28 00:09:29;;;;;;;;;;;;;;;;;;345653;28;1088;-70
2021/11/28 00:11:07;;;;;;;;;;;;;;;;;;345668;28;1427;-70
2021/11/28 00:11:25;;;;;;;;;;;;;;;;;;345606;28;1000;-70
2021/11/28 00:11:43;;;;;;;;;;;;;;;;;;345652;28;914;-70
2021/11/28 00:13:00;;;;;;;;;;;;;;;;;;349382;28;1222;-71
2021/11/28 00:13:12;;;;;;;;;;;;;;;;;;349849;28;818;-70
2021/11/28 00:14:13;;;;;;;;;;;;;;;;;;345673;28;1023;-70
2021/11/28 00:14:23;;;;;;;;;;;;;;;;;;345653;28;814;-70
2021/11/28 00:14:24;;;;;;;;;;;;;;;;;;349787;28;936;-70
2021/11/28 00:14:34;;;;;;;;;;;;;;;;;;349374;28;939;-70
2021/11/28 00:14:45;;;;;;;;;;;;;;;;;;349840;28;968;-70
2021/11/28 00:15:17;;;;;;;;;;;;;;;;;;346926;28;993;-70
2021/11/28 00:15:27;;;;;;;;;;;;;;;;;;347086;28;873;-70
2021/11/28 00:15:38;;;;;;;;;;;;;;;;;;346938;28;973;-70
2021/11/28 00:15:48;;;;;;;;;;;;;;;;;;347017;28;822;-70
2021/11/28 00:16:00;;;;;;;;;;;;;;;;;;347017;28;1131;-70
2021/11/28 00:16:10;;;;;;;;;;;;;;;;;;347056;28;1000;-70
2021/11/28 00:16:21;;;;;;;;;;;;;;;;;;347730;28;1176;-70
2021/11/28 00:16:31;;;;;;;;;;;;;;;;;;349878;28;814;-70
2021/11/28 00:16:42;;;;;;;;;;;;;;;;;;349896;28;968;-70
2021/11/28 00:17:19;;;;;;;;;;;;;;;;;;349873;28;1004;-70
2021/11/28 00:17:29;;;;;;;;;;;;;;;;;;349952;28;1004;-70
2021/11/28 00:17:40;;;;;;;;;;;;;;;;;;349947;28;925;-70
2021/11/28 00:17:50;;;;;;;;;;;;;;;;;;349972;28;857;-70
2021/11/28 00:18:01;;;;;;;;;;;;;;;;;;349933;28;758;-70
2021/11/28 00:18:11;;;;;;;;;;;;;;;;;;349875;28;969;-70
2021/11/28 00:18:42;;;;;;;;;;;;;;;;;;349912;28;916;-70
2021/11/28 00:18:52;;;;;;;;;;;;;;;;;;348249;28;970;-70
2021/11/28 00:19:04;;;;;;;;;;;;;;;;;;348460;28;901;-70
2021/11/28 00:19:29;;;;;;;;;;;;;;;;;;348268;28;1136;-70
2021/11/28 00:19:40;;;;;;;;;;;;;;;;;;348435;28;1086;-70
2021/11/28 00:20:48;;;;;;;;;;;;;;;;;;349904;28;842;-70
2021/11/28 00:20:59;;;;;;;;;;;;;;;;;;349841;28;957;-70
2021/11/28 00:21:09;;;;;;;;;;;;;;;;;;349650;28;996;-70
2021/11/28 00:21:20;;;;;;;;;;;;;;;;;;349846;28;861;-70
2021/11/28 00:21:31;;;;;;;;;;;;;;;;;;349889;28;857;-70
2021/11/28 00:21:41;;;;;;;;;;;;;;;;;;349925;28;561;-70
2021/11/28 00:21:51;;;;;;;;;;;;;;;;;;349842;28;980;-71
2021/11/28 00:22:02;;;;;;;;;;;;;;;;;;349854;28;964;-70
2021/11/28 00:22:13;;;;;;;;;;;;;;;;;;349846;28;1027;-70
2021/11/28 00:22:23;;;;;;;;;;;;;;;;;;349818;28;896;-70
2021/11/28 00:22:34;;;;;;;;;;;;;;;;;;349898;28;884;-70
2021/11/28 00:22:44;;;;;;;;;;;;;;;;;;349807;28;861;-70
2021/11/28 00:22:55;;;;;;;;;;;;;;;;;;349843;28;972;-70
2021/11/28 00:23:05;;;;;;;;;;;;;;;;;;349894;28;813;-70
2021/11/28 00:23:42;;;;;;;;;;;;;;;;;;349902;28;944;-70
2021/11/28 00:23:52;;;;;;;;;;;;;;;;;;349832;28;1047;-70
2021/11/28 00:24:03;;;;;;;;;;;;;;;;;;349854;28;917;-70
2021/11/28 00:24:13;;;;;;;;;;;;;;;;;;349860;28;1052;-70
2021/11/28 00:24:24;;;;;;;;;;;;;;;;;;349904;28;857;-70
2021/11/28 00:24:34;;;;;;;;;;;;;;;;;;349915;28;925;-70
2021/11/28 00:24:45;;;;;;;;;;;;;;;;;;349951;28;929;-70
2021/11/28 00:25:05;;;;;;;;;;;;;;;;;;349944;28;916;-70
2021/11/28 00:25:16;;;;;;;;;;;;;;;;;;349850;28;821;-70
2021/11/28 00:25:27;;;;;;;;;;;;;;;;;;349830;28;900;-70
2021/11/28 00:25:37;;;;;;;;;;;;;;;;;;349929;28;1171;-70
2021/11/28 00:25:48;;;;;;;;;;;;;;;;;;349924;28;1012;-70
2021/11/28 00:25:58;;;;;;;;;;;;;;;;;;349962;28;794;-70
2021/11/28 00:26:08;;;;;;;;;;;;;;;;;;349916;28;991;-70
2021/11/28 00:27:04;;;;;;;;;;;;;;;;;;349949;28;917;-70
2021/11/28 00:27:15;;;;;;;;;;;;;;;;;;348131;28;1959;-70
2021/11/28 00:27:25;;;;;;;;;;;;;;;;;;348329;28;969;-70
2021/11/28 00:27:36;;;;;;;;;;;;;;;;;;348245;28;1000;-70
2021/11/28 00:27:48;;;;;;;;;;;;;;;;;;348418;28;964;-70
2021/11/28 00:27:58;;;;;;;;;;;;;;;;;;348363;28;1051;-70
2021/11/28 00:28:12;;;;;;;;;;;;;;;;;;348439;28;845;-70
2021/11/28 00:28:23;;;;;;;;;;;;;;;;;;348946;28;987;-70
2021/11/28 00:28:34;;;;;;;;;;;;;;;;;;349936;28;801;-70
2021/11/28 00:28:44;;;;;;;;;;;;;;;;;;349768;28;913;-70
2021/11/28 00:28:54;;;;;;;;;;;;;;;;;;349737;28;984;-70
2021/11/28 00:29:08;;;;;;;;;;;;;;;;;;349662;28;1391;-70
2021/11/28 00:29:21;;;;;;;;;;;;;;;;;;349898;28;814;-70
2021/11/28 00:29:38;;;;;;;;;;;;;;;;;;352510;28;1007;-70
2021/11/28 00:29:48;;;;;;;;;;;;;;;;;;352455;28;802;-70
2021/11/28 00:29:59;;;;;;;;;;;;;;;;;;352701;28;872;-70
2021/11/28 00:30:30;;;;;;;;;;;;;;;;;;352678;28;904;-70
2021/11/28 00:30:40;;;;;;;;;;;;;;;;;;346945;28;1189;-70
2021/11/28 00:30:51;;;;;;;;;;;;;;;;;;347021;28;1061;-70
2021/11/28 00:31:02;;;;;;;;;;;;;;;;;;347023;28;1082;-70
2021/11/28 00:31:12;;;;;;;;;;;;;;;;;;346967;28;814;-70
2021/11/28 00:31:22;;;;;;;;;;;;;;;;;;346942;28;850;-70
2021/11/28 00:31:48;;;;;;;;;;;;;;;;;;345756;28;901;-70
2021/11/28 00:31:59;;;;;;;;;;;;;;;;;;345568;28;929;-69
2021/11/28 00:32:09;;;;;;;;;;;;;;;;;;345580;28;866;-70
2021/11/28 00:32:20;;;;;;;;;;;;;;;;;;345642;28;917;-70
2021/11/28 00:32:39;;;;;;;;;;;;;;;;;;345628;28;989;-70
2021/11/28 00:33:16;;;;;;;;;;;;;;;;;;345570;28;810;-70
2021/11/28 00:33:42;;;;;;;;;;;;;;;;;;345633;28;1139;-70
2021/11/28 00:33:52;;;;;;;;;;;;;;;;;;345600;28;986;-70
2021/11/28 00:34:44;;;;;;;;;;;;;;;;;;345627;28;937;-70
2021/11/28 00:34:55;;;;;;;;;;;;;;;;;;345700;28;981;-70
2021/11/28 00:35:06;;;;;;;;;;;;;;;;;;345680;28;882;-70
2021/11/28 00:35:16;;;;;;;;;;;;;;;;;;345553;28;1290;-70
2021/11/28 00:35:27;;;;;;;;;;;;;;;;;;345669;28;810;-70
2021/11/28 00:35:38;;;;;;;;;;;;;;;;;;345623;28;945;-70
2021/11/28 00:35:48;;;;;;;;;;;;;;;;;;345611;28;878;-70
2021/11/28 00:35:58;;;;;;;;;;;;;;;;;;345693;28;921;-70
2021/11/28 00:36:09;;;;;;;;;;;;;;;;;;345703;28;830;-70
2021/11/28 00:36:20;;;;;;;;;;;;;;;;;;345599;28;826;-70
2021/11/28 00:36:30;;;;;;;;;;;;;;;;;;345599;28;858;-70
2021/11/28 00:36:40;;;;;;;;;;;;;;;;;;345580;28;1125;-70
2021/11/28 00:36:51;;;;;;;;;;;;;;;;;;345630;28;921;-70
2021/11/28 00:37:01;;;;;;;;;;;;;;;;;;345667;28;925;-70
2021/11/28 00:37:13;;;;;;;;;;;;;;;;;;345602;28;736;-70
2021/11/28 00:37:23;;;;;;;;;;;;;;;;;;345623;28;1048;-70
2021/11/28 00:37:34;;;;;;;;;;;;;;;;;;345670;28;854;-70
2021/11/28 00:37:44;;;;;;;;;;;;;;;;;;345599;28;851;-70
2021/11/28 00:38:21;;;;;;;;;;;;;;;;;;345684;28;827;-70
2021/11/28 00:38:57;;;;;;;;;;;;;;;;;;345565;28;764;-70
2021/11/28 00:39:08;;;;;;;;;;;;;;;;;;345464;28;854;-70
2021/11/28 00:39:18;;;;;;;;;;;;;;;;;;346909;28;1212;-70
2021/11/28 00:39:29;;;;;;;;;;;;;;;;;;347016;28;932;-70
2021/11/28 00:39:42;;;;;;;;;;;;;;;;;;346992;28;941;-70
2021/11/28 00:39:53;;;;;;;;;;;;;;;;;;346971;28;877;-70
2021/11/28 00:40:04;;;;;;;;;;;;;;;;;;347048;28;842;-70
2021/11/28 00:40:14;;;;;;;;;;;;;;;;;;347041;28;515;-70
2021/11/28 00:40:25;;;;;;;;;;;;;;;;;;347073;28;917;-70
2021/11/28 00:40:35;;;;;;;;;;;;;;;;;;347016;28;1013;-70
2021/11/28 00:40:45;;;;;;;;;;;;;;;;;;346866;28;697;-70
2021/11/28 00:40:57;;;;;;;;;;;;;;;;;;346893;28;965;-70
2021/11/28 00:41:33;;;;;;;;;;;;;;;;;;345632;28;1033;-70
2021/11/28 00:41:44;;;;;;;;;;;;;;;;;;345648;28;1171;-70
2021/11/28 00:41:54;;;;;;;;;;;;;;;;;;345732;28;976;-70
2021/11/28 00:42:06;;;;;;;;;;;;;;;;;;345639;28;973;-70
2021/11/28 00:42:16;;;;;;;;;;;;;;;;;;345666;28;953;-70
2021/11/28 00:42:45;;;;;;;;;;;;;;;;;;345687;28;905;-70
2021/11/28 00:42:56;;;;;;;;;;;;;;;;;;345597;28;922;-70
2021/11/28 00:43:07;;;;;;;;;;;;;;;;;;345564;28;921;-70
2021/11/28 00:43:43;;;;;;;;;;;;;;;;;;345652;28;838;-70
2021/11/28 00:43:53;;;;;;;;;;;;;;;;;;345660;28;1004;-70
2021/11/28 00:44:04;;;;;;;;;;;;;;;;;;345544;28;862;-70
2021/11/28 00:44:14;;;;;;;;;;;;;;;;;;346934;28;795;-70
2021/11/28 00:44:24;;;;;;;;;;;;;;;;;;346990;28;964;-70
2021/11/28 00:44:35;;;;;;;;;;;;;;;;;;346970;28;889;-70
2021/11/28 00:44:45;;;;;;;;;;;;;;;;;;347021;28;1056;-70
2021/11/28 00:44:56;;;;;;;;;;;;;;;;;;347037;28;850;-70
2021/11/28 00:45:07;;;;;;;;;;;;;;;;;;346932;28;980;-71
2021/11/28 00:45:37;;;;;;;;;;;;;;;;;;346958;28;879;-70
2021/11/28 00:45:48;;;;;;;;;;;;;;;;;;342948;28;1777;-70
2021/11/28 00:45:59;;;;;;;;;;;;;;;;;;342929;28;1174;-70
2021/11/28 00:46:09;;;;;;;;;;;;;;;;;;342335;28;987;-70
2021/11/28 00:46:19;;;;;;;;;;;;;;;;;;341611;29;1017;-70
2021/11/28 00:46:32;;;;;;;;;;;;;;;;;;341680;29;969;-70
2021/11/28 00:46:42;;;;;;;;;;;;;;;;;;341640;29;851;-71
2021/11/28 00:46:52;;;;;;;;;;;;;;;;;;342321;28;994;-70
2021/11/28 00:47:03;;;;;;;;;;;;;;;;;;345540;28;842;-70
2021/11/28 00:47:14;;;;;;;;;;;;;;;;;;345377;28;1910;-70
2021/11/28 00:47:24;;;;;;;;;;;;;;;;;;345612;28;775;-70
2021/11/28 00:47:35;;;;;;;;;;;;;;;;;;345602;28;929;-70
2021/11/28 00:47:45;;;;;;;;;;;;;;;;;;345573;28;820;-70
2021/11/28 00:47:56;;;;;;;;;;;;;;;;;;345679;28;988;-70
2021/11/28 00:48:06;;;;;;;;;;;;;;;;;;345644;28;838;-70
2021/11/28 00:48:17;;;;;;;;;;;;;;;;;;345586;28;925;-70
2021/11/28 00:48:30;;;;;;;;;;;;;;;;;;345663;28;1032;-70
2021/11/28 00:48:43;;;;;;;;;;;;;;;;;;345650;28;985;-70
2021/11/28 00:48:53;;;;;;;;;;;;;;;;;;345601;28;922;-70
2021/11/28 00:49:11;;;;;;;;;;;;;;;;;;345598;28;969;-70
2021/11/28 00:49:23;;;;;;;;;;;;;;;;;;345400;28;1145;-70
2021/11/28 00:49:36;;;;;;;;;;;;;;;;;;345618;28;1004;-70
2021/11/28 00:50:05;;;;;;;;;;;;;;;;;;345679;28;933;-70
2021/11/28 00:51:11;;;;;;;;;;;;;;;;;;345617;28;885;-70
2021/11/28 00:51:33;;;;;;;;;;;;;;;;;;345636;28;953;-70
2021/11/28 00:51:52;;;;;;;;;;;;;;;;;;345614;28;909;-70
2021/11/28 00:52:03;;;;;;;;;;;;;;;;;;345536;28;855;-70
2021/11/28 00:52:13;;;;;;;;;;;;;;;;;;345698;28;838;-70
2021/11/28 00:52:24;;;;;;;;;;;;;;;;;;345624;28;944;-70
2021/11/28 00:52:34;;;;;;;;;;;;;;;;;;345665;28;988;-70
2021/11/28 00:52:45;;;;;;;;;;;;;;;;;;345646;28;903;-70
2021/11/28 00:52:55;;;;;;;;;;;;;;;;;;345642;28;985;-71
2021/11/28 00:53:06;;;;;;;;;;;;;;;;;;345622;28;973;-70
2021/11/28 00:53:19;;;;;;;;;;;;;;;;;;345619;28;1226;-70
2021/11/28 00:53:29;;;;;;;;;;;;;;;;;;345662;28;989;-70
2021/11/28 00:53:39;;;;;;;;;;;;;;;;;;345629;28;893;-70
2021/11/28 00:53:51;;;;;;;;;;;;;;;;;;345678;28;918;-70
2021/11/28 00:54:01;;;;;;;;;;;;;;;;;;344342;28;866;-70
2021/11/28 00:54:12;;;;;;;;;;;;;;;;;;344163;28;834;-70
2021/11/28 00:54:24;;;;;;;;;;;;;;;;;;344043;28;921;-70
2021/11/28 00:54:50;;;;;;;;;;;;;;;;;;342896;28;855;-70
2021/11/28 00:55:01;;;;;;;;;;;;;;;;;;342920;28;946;-70
2021/11/28 00:55:13;;;;;;;;;;;;;;;;;;342861;28;989;-70
2021/11/28 00:55:49;;;;;;;;;;;;;;;;;;341935;28;974;-70
2021/11/28 00:55:59;;;;;;;;;;;;;;;;;;342462;28;974;-70
2021/11/28 00:56:09;;;;;;;;;;;;;;;;;;343747;28;842;-70
2021/11/28 00:56:20;;;;;;;;;;;;;;;;;;344309;28;1056;-70
2021/11/28 00:56:30;;;;;;;;;;;;;;;;;;346219;28;1029;-70
2021/11/28 00:57:15;;;;;;;;;;;;;;;;;;345528;28;994;-70
2021/11/28 00:57:26;;;;;;;;;;;;;;;;;;345588;28;1204;-70
2021/11/28 00:57:37;;;;;;;;;;;;;;;;;;345611;28;966;-70
2021/11/28 00:57:47;;;;;;;;;;;;;;;;;;345715;28;827;-70
2021/11/28 00:57:58;;;;;;;;;;;;;;;;;;345569;28;929;-70
2021/11/28 00:58:08;;;;;;;;;;;;;;;;;;345614;28;1001;-70
2021/11/28 00:58:19;;;;;;;;;;;;;;;;;;345729;28;1197;-70
2021/11/28 00:58:29;;;;;;;;;;;;;;;;;;345931;28;826;-70
2021/11/28 00:58:39;;;;;;;;;;;;;;;;;;345647;28;1715;-70
2021/11/28 00:58:50;;;;;;;;;;;;;;;;;;345593;28;799;-70
2021/11/28 00:59:00;;;;;;;;;;;;;;;;;;345671;28;866;-70
2021/11/28 00:59:13;;;;;;;;;;;;;;;;;;345424;28;811;-71
2021/11/28 00:59:24;;;;;;;;;;;;;;;;;;345572;28;838;-70
2021/11/28 00:59:34;;;;;;;;;;;;;;;;;;345687;28;918;-70
2021/11/28 00:59:45;;;;;;;;;;;;;;;;;;345609;28;1047;-70
2021/11/28 00:59:55;;;;;;;;;;;;;;;;;;345616;28;917;-70
2021/11/28 01:00:08;;;;;;;;;;;;;;;;;;345603;28;830;-70
2021/11/28 01:00:18;;;;;;;;;;;;;;;;;;344212;28;1292;-70
2021/11/28 01:00:28;;;;;;;;;;;;;;;;;;345557;28;1318;-70
2021/11/28 01:00:39;;;;;;;;;;;;;;;;;;345475;28;1019;-70
2021/11/28 01:00:49;;;;;;;;;;;;;;;;;;345711;28;823;-70
2021/11/28 01:00:59;;;;;;;;;;;;;;;;;;345526;28;881;-70
2021/11/28 01:01:10;;;;;;;;;;;;;;;;;;344226;28;854;-70
2021/11/28 01:01:20;;;;;;;;;;;;;;;;;;344234;28;917;-70
2021/11/28 01:01:31;;;;;;;;;;;;;;;;;;344261;28;964;-70
2021/11/28 01:01:42;;;;;;;;;;;;;;;;;;344280;28;871;-70
2021/11/28 01:01:52;;;;;;;;;;;;;;;;;;344321;28;985;-70
2021/11/28 01:02:02;;;;;;;;;;;;;;;;;;344355;28;1009;-70
2021/11/28 01:02:13;;;;;;;;;;;;;;;;;;344783;28;897;-70
2021/11/28 01:02:23;;;;;;;;;;;;;;;;;;345141;28;1449;-70
2021/11/28 01:02:34;;;;;;;;;;;;;;;;;;344279;28;1024;-70
2021/11/28 01:02:44;;;;;;;;;;;;;;;;;;344253;28;1021;-70
2021/11/28 01:02:55;;;;;;;;;;;;;;;;;;344223;28;997;-70
2021/11/28 01:03:06;;;;;;;;;;;;;;;;;;344862;28;874;-70
2021/11/28 01:03:16;;;;;;;;;;;;;;;;;;345546;28;1017;-70
2021/11/28 01:03:27;;;;;;;;;;;;;;;;;;345708;28;787;-70
2021/11/28 01:03:37;;;;;;;;;;;;;;;;;;346967;28;704;-70
2021/11/28 01:03:47;;;;;;;;;;;;;;;;;;347041;28;1200;-70
2021/11/28 01:03:58;;;;;;;;;;;;;;;;;;346875;28;1204;-70
2021/11/28 01:04:09;;;;;;;;;;;;;;;;;;346957;28;1040;-70
2021/11/28 01:04:19;;;;;;;;;;;;;;;;;;346873;28;1035;-70
2021/11/28 01:04:29;;;;;;;;;;;;;;;;;;346835;28;1006;-70
2021/11/28 01:04:40;;;;;;;;;;;;;;;;;;346971;28;961;-70
2021/11/28 01:04:50;;;;;;;;;;;;;;;;;;347033;28;882;-70
2021/11/28 01:05:02;;;;;;;;;;;;;;;;;;347089;28;819;-70
2021/11/28 01:05:12;;;;;;;;;;;;;;;;;;346859;28;1020;-70
2021/11/28 01:05:23;;;;;;;;;;;;;;;;;;346952;28;834;-70
2021/11/28 01:05:33;;;;;;;;;;;;;;;;;;346261;28;845;-70
2021/11/28 01:05:43;;;;;;;;;;;;;;;;;;345710;28;870;-70
2021/11/28 01:05:54;;;;;;;;;;;;;;;;;;345704;28;850;-70
2021/11/28 01:06:04;;;;;;;;;;;;;;;;;;345608;28;971;-70
2021/11/28 01:06:15;;;;;;;;;;;;;;;;;;345653;28;873;-70
2021/11/28 01:06:25;;;;;;;;;;;;;;;;;;345648;28;489;-70
2021/11/28 01:06:36;;;;;;;;;;;;;;;;;;345574;28;902;-70
2021/11/28 01:06:46;;;;;;;;;;;;;;;;;;345612;28;822;-70
2021/11/28 01:06:57;;;;;;;;;;;;;;;;;;345662;28;917;-70
2021/11/28 01:07:22;;;;;;;;;;;;;;;;;;345545;28;945;-70
2021/11/28 01:07:33;;;;;;;;;;;;;;;;;;345662;28;1008;-70
2021/11/28 01:07:43;;;;;;;;;;;;;;;;;;345525;28;834;-70
2021/11/28 01:07:53;;;;;;;;;;;;;;;;;;345670;28;858;-70
2021/11/28 01:08:04;;;;;;;;;;;;;;;;;;345698;28;807;-70
2021/11/28 01:08:14;;;;;;;;;;;;;;;;;;345624;28;921;-70
2021/11/28 01:08:25;;;;;;;;;;;;;;;;;;345693;28;1056;-70
2021/11/28 01:08:35;;;;;;;;;;;;;;;;;;345626;28;990;-70
2021/11/28 01:08:46;;;;;;;;;;;;;;;;;;345625;28;980;-70
2021/11/28 01:08:56;;;;;;;;;;;;;;;;;;349078;28;971;-70
2021/11/28 01:09:07;;;;;;;;;;;;;;;;;;352812;28;844;-70
2021/11/28 01:09:18;;;;;;;;;;;;;;;;;;352808;28;904;-70
2021/11/28 01:09:28;;;;;;;;;;;;;;;;;;352727;28;932;-70
2021/11/28 01:09:39;;;;;;;;;;;;;;;;;;352824;28;972;-70
2021/11/28 01:09:49;;;;;;;;;;;;;;;;;;352797;28;900;-70
2021/11/28 01:10:00;;;;;;;;;;;;;;;;;;352833;28;925;-70
2021/11/28 01:10:11;;;;;;;;;;;;;;;;;;352893;28;971;-70
2021/11/28 01:10:21;;;;;;;;;;;;;;;;;;352902;28;869;-70
2021/11/28 01:10:31;;;;;;;;;;;;;;;;;;352922;28;1039;-70
2021/11/28 01:10:44;;;;;;;;;;;;;;;;;;352849;28;909;-70
2021/11/28 01:10:55;;;;;;;;;;;;;;;;;;350638;28;970;-70
2021/11/28 01:11:05;;;;;;;;;;;;;;;;;;350146;28;841;-70
2021/11/28 01:11:16;;;;;;;;;;;;;;;;;;350011;28;898;-70
2021/11/28 01:11:47;;;;;;;;;;;;;;;;;;347243;28;978;-70
2021/11/28 01:12:01;;;;;;;;;;;;;;;;;;347245;28;905;-70
2021/11/28 01:12:12;;;;;;;;;;;;;;;;;;347148;28;779;-70
2021/11/28 01:12:22;;;;;;;;;;;;;;;;;;347278;28;909;-70
2021/11/28 01:12:33;;;;;;;;;;;;;;;;;;347299;28;782;-70
2021/11/28 01:12:43;;;;;;;;;;;;;;;;;;346746;28;1285;-70
2021/11/28 01:12:55;;;;;;;;;;;;;;;;;;347085;28;1153;-70
2021/11/28 01:13:24;;;;;;;;;;;;;;;;;;348810;28;787;-70
2021/11/28 01:13:35;;;;;;;;;;;;;;;;;;348788;28;957;-70
2021/11/28 01:13:45;;;;;;;;;;;;;;;;;;348762;28;1034;-70
2021/11/28 01:13:55;;;;;;;;;;;;;;;;;;348829;28;964;-70
2021/11/28 01:14:06;;;;;;;;;;;;;;;;;;348763;28;1008;-70
2021/11/28 01:14:16;;;;;;;;;;;;;;;;;;348607;28;1039;-70
2021/11/28 01:14:27;;;;;;;;;;;;;;;;;;348769;28;609;-70
2021/11/28 01:14:37;;;;;;;;;;;;;;;;;;348822;28;1078;-70
2021/11/28 01:14:48;;;;;;;;;;;;;;;;;;348643;28;1101;-70
2021/11/28 01:14:58;;;;;;;;;;;;;;;;;;348806;28;833;-70
2021/11/28 01:15:10;;;;;;;;;;;;;;;;;;348550;28;823;-71
2021/11/28 01:15:46;;;;;;;;;;;;;;;;;;348608;28;928;-70
2021/11/28 01:15:57;;;;;;;;;;;;;;;;;;348710;28;842;-70
2021/11/28 01:16:08;;;;;;;;;;;;;;;;;;348665;28;912;-70
2021/11/28 01:16:35;;;;;;;;;;;;;;;;;;348686;28;493;-70
2021/11/28 01:16:45;;;;;;;;;;;;;;;;;;347322;28;842;-70
2021/11/28 01:16:55;;;;;;;;;;;;;;;;;;347319;28;980;-70
2021/11/28 01:17:09;;;;;;;;;;;;;;;;;;348083;28;936;-70
2021/11/28 01:17:20;;;;;;;;;;;;;;;;;;348686;28;999;-70
2021/11/28 01:17:33;;;;;;;;;;;;;;;;;;348650;28;948;-70
2021/11/28 01:17:43;;;;;;;;;;;;;;;;;;348742;28;937;-70
2021/11/28 01:17:54;;;;;;;;;;;;;;;;;;348725;28;900;-70
2021/11/28 01:18:05;;;;;;;;;;;;;;;;;;348736;28;822;-70
2021/11/28 01:18:16;;;;;;;;;;;;;;;;;;348661;28;968;-70
2021/11/28 01:18:27;;;;;;;;;;;;;;;;;;348655;28;1139;-70
2021/11/28 01:18:38;;;;;;;;;;;;;;;;;;348670;28;1047;-70
2021/11/28 01:18:49;;;;;;;;;;;;;;;;;;348700;28;864;-70
2021/11/28 01:18:59;;;;;;;;;;;;;;;;;;348751;28;813;-70
2021/11/28 01:19:10;;;;;;;;;;;;;;;;;;348732;28;912;-70
2021/11/28 01:19:20;;;;;;;;;;;;;;;;;;348808;28;980;-70
2021/11/28 01:19:31;;;;;;;;;;;;;;;;;;348701;28;1081;-70
2021/11/28 01:19:41;;;;;;;;;;;;;;;;;;348677;28;992;-70
2021/11/28 01:19:51;;;;;;;;;;;;;;;;;;348725;28;1011;-70
2021/11/28 01:20:03;;;;;;;;;;;;;;;;;;348786;28;1039;-70
2021/11/28 01:20:32;;;;;;;;;;;;;;;;;;348807;28;596;-70
2021/11/28 01:20:42;;;;;;;;;;;;;;;;;;348743;28;968;-70
2021/11/28 01:20:53;;;;;;;;;;;;;;;;;;348746;28;790;-70
2021/11/28 01:21:03;;;;;;;;;;;;;;;;;;348684;28;837;-70
2021/11/28 01:21:14;;;;;;;;;;;;;;;;;;348684;28;940;-70
2021/11/28 01:21:24;;;;;;;;;;;;;;;;;;348777;28;881;-70
2021/11/28 01:21:35;;;;;;;;;;;;;;;;;;348783;28;1011;-70
2021/11/28 01:22:05;;;;;;;;;;;;;;;;;;348729;28;913;-70
2021/11/28 01:22:16;;;;;;;;;;;;;;;;;;348685;28;976;-70
2021/11/28 01:22:26;;;;;;;;;;;;;;;;;;348699;28;920;-70
2021/11/28 01:22:37;;;;;;;;;;;;;;;;;;348692;28;810;-70
2021/11/28 01:22:48;;;;;;;;;;;;;;;;;;348721;28;963;-70
2021/11/28 01:22:58;;;;;;;;;;;;;;;;;;348659;28;833;-70
2021/11/28 01:23:08;;;;;;;;;;;;;;;;;;348512;28;880;-71
2021/11/28 01:23:45;;;;;;;;;;;;;;;;;;348706;28;1016;-70
2021/11/28 01:24:11;;;;;;;;;;;;;;;;;;348779;28;976;-70
2021/11/28 01:24:22;;;;;;;;;;;;;;;;;;348799;28;929;-70
2021/11/28 01:24:35;;;;;;;;;;;;;;;;;;348660;28;1015;-70
2021/11/28 01:24:46;;;;;;;;;;;;;;;;;;348752;28;813;-70
2021/11/28 01:24:57;;;;;;;;;;;;;;;;;;348787;28;1035;-70
2021/11/28 01:25:10;;;;;;;;;;;;;;;;;;348694;28;920;-70
2021/11/28 01:25:20;;;;;;;;;;;;;;;;;;348799;28;794;-70
2021/11/28 01:25:51;;;;;;;;;;;;;;;;;;348683;28;1445;-70
2021/11/28 01:26:01;;;;;;;;;;;;;;;;;;345889;28;1172;-70
2021/11/28 01:26:12;;;;;;;;;;;;;;;;;;345737;28;1203;-70
2021/11/28 01:26:22;;;;;;;;;;;;;;;;;;345827;28;961;-70
2021/11/28 01:26:33;;;;;;;;;;;;;;;;;;345877;28;925;-70
2021/11/28 01:26:43;;;;;;;;;;;;;;;;;;345863;28;976;-70
2021/11/28 01:26:54;;;;;;;;;;;;;;;;;;345842;28;1046;-70
2021/11/28 01:27:06;;;;;;;;;;;;;;;;;;345811;28;1145;-71
2021/11/28 01:27:43;;;;;;;;;;;;;;;;;;344402;28;1029;-70
2021/11/28 01:27:53;;;;;;;;;;;;;;;;;;344621;28;857;-70
2021/11/28 01:28:04;;;;;;;;;;;;;;;;;;344587;28;882;-70
2021/11/28 01:28:15;;;;;;;;;;;;;;;;;;344550;28;886;-70
2021/11/28 01:28:25;;;;;;;;;;;;;;;;;;344549;28;830;-70
2021/11/28 01:28:35;;;;;;;;;;;;;;;;;;344511;28;847;-70
2021/11/28 01:28:46;;;;;;;;;;;;;;;;;;344407;28;991;-70
2021/11/28 01:28:57;;;;;;;;;;;;;;;;;;344531;28;795;-70
2021/11/28 01:29:08;;;;;;;;;;;;;;;;;;344432;28;886;-70
2021/11/28 01:29:18;;;;;;;;;;;;;;;;;;345850;28;937;-70
2021/11/28 01:29:29;;;;;;;;;;;;;;;;;;345793;28;961;-70
2021/11/28 01:29:40;;;;;;;;;;;;;;;;;;345685;28;1168;-70
2021/11/28 01:29:51;;;;;;;;;;;;;;;;;;345777;28;1028;-70
2021/11/28 01:30:01;;;;;;;;;;;;;;;;;;345882;28;924;-70
2021/11/28 01:30:12;;;;;;;;;;;;;;;;;;345901;28;910;-70
2021/11/28 01:30:22;;;;;;;;;;;;;;;;;;345852;28;884;-70
2021/11/28 01:30:33;;;;;;;;;;;;;;;;;;345877;28;830;-70
2021/11/28 01:30:43;;;;;;;;;;;;;;;;;;345865;28;913;-70
2021/11/28 01:31:14;;;;;;;;;;;;;;;;;;345851;28;854;-70
2021/11/28 01:31:25;;;;;;;;;;;;;;;;;;341897;29;1451;-70
2021/11/28 01:32:02;;;;;;;;;;;;;;;;;;341772;29;978;-70
2021/11/28 01:32:13;;;;;;;;;;;;;;;;;;341797;29;969;-70
2021/11/28 01:32:23;;;;;;;;;;;;;;;;;;341870;29;791;-70
2021/11/28 01:32:35;;;;;;;;;;;;;;;;;;344112;28;980;-70
2021/11/28 01:33:12;;;;;;;;;;;;;;;;;;345745;28;937;-70
2021/11/28 01:33:23;;;;;;;;;;;;;;;;;;344468;28;976;-70
2021/11/28 01:33:59;;;;;;;;;;;;;;;;;;344548;28;934;-70
2021/11/28 01:34:15;;;;;;;;;;;;;;;;;;344520;28;1047;-70
2021/11/28 01:34:26;;;;;;;;;;;;;;;;;;343076;28;2416;-70
2021/11/28 01:34:36;;;;;;;;;;;;;;;;;;341737;29;978;-70
2021/11/28 01:34:47;;;;;;;;;;;;;;;;;;341721;29;954;-70
2021/11/28 01:34:57;;;;;;;;;;;;;;;;;;341858;29;965;-70
2021/11/28 01:35:09;;;;;;;;;;;;;;;;;;341747;28;827;-70
2021/11/28 01:35:19;;;;;;;;;;;;;;;;;;342568;28;1021;-70
2021/11/28 01:35:30;;;;;;;;;;;;;;;;;;341908;29;846;-70
2021/11/28 01:35:40;;;;;;;;;;;;;;;;;;341828;29;1029;-70
2021/11/28 01:35:50;;;;;;;;;;;;;;;;;;341860;29;914;-70
2021/11/28 01:36:01;;;;;;;;;;;;;;;;;;341846;29;854;-70
2021/11/28 01:36:11;;;;;;;;;;;;;;;;;;341831;29;806;-70
2021/11/28 01:36:22;;;;;;;;;;;;;;;;;;341780;29;911;-70
2021/11/28 01:36:32;;;;;;;;;;;;;;;;;;342473;28;1057;-70
2021/11/28 01:36:42;;;;;;;;;;;;;;;;;;343165;28;855;-70
2021/11/28 01:36:53;;;;;;;;;;;;;;;;;;343220;28;933;-70
2021/11/28 01:37:05;;;;;;;;;;;;;;;;;;343048;28;949;-70
2021/11/28 01:37:15;;;;;;;;;;;;;;;;;;342985;28;828;-70
2021/11/28 01:37:25;;;;;;;;;;;;;;;;;;343786;28;990;-70
2021/11/28 01:37:37;;;;;;;;;;;;;;;;;;345108;28;814;-70
2021/11/28 01:37:47;;;;;;;;;;;;;;;;;;345895;28;874;-70
2021/11/28 01:37:57;;;;;;;;;;;;;;;;;;344423;28;1315;-70
2021/11/28 01:38:08;;;;;;;;;;;;;;;;;;344510;28;806;-70
2021/11/28 01:38:20;;;;;;;;;;;;;;;;;;344577;28;878;-70
2021/11/28 01:38:30;;;;;;;;;;;;;;;;;;344499;28;981;-70
2021/11/28 01:38:41;;;;;;;;;;;;;;;;;;344485;28;925;-70
2021/11/28 01:38:51;;;;;;;;;;;;;;;;;;344510;28;991;-70
2021/11/28 01:39:04;;;;;;;;;;;;;;;;;;344527;28;870;-70
2021/11/28 01:39:15;;;;;;;;;;;;;;;;;;344325;28;810;-70
2021/11/28 01:39:25;;;;;;;;;;;;;;;;;;344524;28;925;-70
2021/11/28 01:39:36;;;;;;;;;;;;;;;;;;344476;28;913;-71
2021/11/28 01:39:47;;;;;;;;;;;;;;;;;;344399;28;830;-70
2021/11/28 01:39:57;;;;;;;;;;;;;;;;;;345659;28;854;-70
2021/11/28 01:40:10;;;;;;;;;;;;;;;;;;345808;28;957;-70
2021/11/28 01:40:21;;;;;;;;;;;;;;;;;;345840;28;925;-70
2021/11/28 01:40:32;;;;;;;;;;;;;;;;;;345859;28;921;-70
2021/11/28 01:40:42;;;;;;;;;;;;;;;;;;345869;28;1016;-70
2021/11/28 01:40:56;;;;;;;;;;;;;;;;;;345772;28;997;-70